createdAt,value
2017-06-21T00:00:15.383Z,17.81
2017-06-21T00:01:15.056Z,17.78
2017-06-21T00:02:15.359Z,17.79
2017-06-21T00:03:15.045Z,17.76
2017-06-21T00:04:15.346Z,17.78
2017-06-21T00:05:15.019Z,17.64
2017-06-21T00:06:15.013Z,17.73
2017-06-21T00:07:15.003Z,17.7
2017-06-21T00:08:14.990Z,17.7
2017-06-21T00:09:15.293Z,17.64
2017-06-21T00:10:15.287Z,17.62
2017-06-21T00:11:14.649Z,17.66
2017-06-21T00:12:14.953Z,17.48
2017-06-21T00:13:14.945Z,17.57
2017-06-21T00:14:14.967Z,17.57
2017-06-21T00:15:14.924Z,17.51
2017-06-21T00:16:14.948Z,17.48
2017-06-21T00:17:15.231Z,17.46
2017-06-21T00:18:14.580Z,17.51
2017-06-21T00:19:14.936Z,17.41
2017-06-21T00:20:15.235Z,17.4
2017-06-21T00:21:15.182Z,17.44
2017-06-21T00:22:15.176Z,17.36
2017-06-21T00:23:15.170Z,17.3
2017-06-21T00:24:15.149Z,17.33
2017-06-21T00:25:14.822Z,17.38
2017-06-21T00:26:15.145Z,17.32
2017-06-21T00:27:14.828Z,17.36
2017-06-21T00:28:15.138Z,17.22
2017-06-21T00:29:14.471Z,17.26
2017-06-21T00:30:15.132Z,17.28
2017-06-21T00:31:14.770Z,17.2
2017-06-21T00:32:14.772Z,17.22
2017-06-21T00:33:15.062Z,17.25
2017-06-21T00:34:15.050Z,17.18
2017-06-21T00:35:14.726Z,17.22
2017-06-21T00:36:14.404Z,17.18
2017-06-21T00:37:14.391Z,17.15
2017-06-21T00:38:14.695Z,17.11
2017-06-21T00:39:14.687Z,17.13
2017-06-21T00:40:14.366Z,17.1
2017-06-21T00:41:14.984Z,17.08
2017-06-21T00:42:14.341Z,17.07
2017-06-21T00:43:14.968Z,17.07
2017-06-21T00:44:14.644Z,16.99
2017-06-21T00:45:14.937Z,17.08
2017-06-21T00:46:14.923Z,17.08
2017-06-21T00:47:14.605Z,17.03
2017-06-21T00:48:14.594Z,17.07
2017-06-21T00:49:14.587Z,17.04
2017-06-21T00:50:14.576Z,16.96
2017-06-21T00:51:14.255Z,16.99
2017-06-21T00:52:14.551Z,16.92
2017-06-21T00:53:14.548Z,16.99
2017-06-21T00:54:14.849Z,16.99
2017-06-21T00:55:14.523Z,16.85
2017-06-21T00:56:14.513Z,16.89
2017-06-21T00:57:14.502Z,16.85
2017-06-21T00:58:14.821Z,16.86
2017-06-21T00:59:14.797Z,16.88
2017-06-21T01:00:14.798Z,16.77
2017-06-21T01:01:14.796Z,16.78
2017-06-21T01:02:14.773Z,16.68
2017-06-21T01:03:14.755Z,16.85
2017-06-21T01:04:14.434Z,16.78
2017-06-21T01:05:14.110Z,16.71
2017-06-21T01:06:14.413Z,16.73
2017-06-21T01:07:14.712Z,16.67
2017-06-21T01:08:14.704Z,16.65
2017-06-21T01:09:14.377Z,16.59
2017-06-21T01:10:14.681Z,16.6
2017-06-21T01:11:14.357Z,16.53
2017-06-21T01:12:14.659Z,16.5
2017-06-21T01:13:14.652Z,16.5
2017-06-21T01:14:14.682Z,16.48
2017-06-21T01:15:14.341Z,16.52
2017-06-21T01:16:14.310Z,16.5
2017-06-21T01:17:14.297Z,16.45
2017-06-21T01:18:14.282Z,16.5
2017-06-21T01:19:14.588Z,16.49
2017-06-21T01:20:13.949Z,16.45
2017-06-21T01:21:13.939Z,16.34
2017-06-21T01:22:14.564Z,16.35
2017-06-21T01:23:14.549Z,16.37
2017-06-21T01:24:14.536Z,16.44
2017-06-21T01:25:14.532Z,16.35
2017-06-21T01:26:14.514Z,16.27
2017-06-21T01:27:14.503Z,16.35
2017-06-21T01:28:14.492Z,16.34
2017-06-21T01:29:14.166Z,16.31
2017-06-21T01:30:14.156Z,16.26
2017-06-21T01:31:14.461Z,16.27
2017-06-21T01:32:14.657Z,16.25
2017-06-21T01:33:14.438Z,16.23
2017-06-21T01:34:14.118Z,16.18
2017-06-21T01:35:13.795Z,16.18
2017-06-21T01:36:14.407Z,16.11
2017-06-21T01:37:14.399Z,16.18
2017-06-21T01:38:14.381Z,16.14
2017-06-21T01:39:14.375Z,16.12
2017-06-21T01:40:14.365Z,16.18
2017-06-21T01:41:14.354Z,16.12
2017-06-21T01:42:14.345Z,16.11
2017-06-21T01:43:14.333Z,16.16
2017-06-21T01:44:14.012Z,16.04
2017-06-21T01:45:14.313Z,16
2017-06-21T01:46:13.987Z,15.93
2017-06-21T01:47:14.290Z,15.96
2017-06-21T01:48:13.650Z,15.93
2017-06-21T01:49:13.952Z,15.94
2017-06-21T01:50:13.945Z,15.88
2017-06-21T01:51:13.936Z,15.94
2017-06-21T01:52:14.234Z,15.89
2017-06-21T01:53:14.224Z,15.85
2017-06-21T01:54:14.216Z,15.89
2017-06-21T01:55:14.206Z,15.88
2017-06-21T01:56:13.885Z,15.78
2017-06-21T01:57:14.182Z,15.74
2017-06-21T01:58:13.856Z,15.84
2017-06-21T01:59:14.161Z,15.78
2017-06-21T02:00:14.147Z,15.7
2017-06-21T02:01:13.826Z,15.68
2017-06-21T02:02:14.164Z,15.64
2017-06-21T02:03:14.115Z,15.66
2017-06-21T02:04:13.478Z,15.68
2017-06-21T02:05:13.783Z,15.59
2017-06-21T02:06:13.459Z,15.68
2017-06-21T02:07:13.761Z,15.67
2017-06-21T02:08:13.749Z,15.6
2017-06-21T02:09:13.426Z,15.57
2017-06-21T02:10:14.040Z,15.64
2017-06-21T02:11:14.027Z,15.59
2017-06-21T02:12:14.016Z,15.56
2017-06-21T02:13:14.005Z,15.64
2017-06-21T02:14:13.688Z,15.52
2017-06-21T02:15:13.982Z,15.51
2017-06-21T02:16:13.659Z,15.52
2017-06-21T02:17:13.965Z,15.49
2017-06-21T02:18:13.330Z,15.54
2017-06-21T02:19:13.626Z,15.52
2017-06-21T02:20:13.616Z,15.51
2017-06-21T02:21:13.611Z,15.46
2017-06-21T02:22:13.915Z,15.49
2017-06-21T02:23:13.895Z,15.48
2017-06-21T02:24:13.573Z,15.45
2017-06-21T02:25:13.872Z,15.43
2017-06-21T02:26:13.551Z,15.45
2017-06-21T02:27:13.227Z,15.42
2017-06-21T02:28:13.842Z,15.43
2017-06-21T02:29:13.830Z,15.48
2017-06-21T02:30:13.515Z,15.42
2017-06-21T02:31:13.809Z,15.48
2017-06-21T02:32:13.795Z,15.46
2017-06-21T02:33:13.159Z,15.42
2017-06-21T02:34:13.777Z,15.39
2017-06-21T02:35:13.453Z,15.43
2017-06-21T02:36:13.443Z,15.31
2017-06-21T02:37:13.117Z,15.36
2017-06-21T02:38:13.415Z,15.31
2017-06-21T02:39:13.403Z,15.33
2017-06-21T02:40:13.391Z,15.35
2017-06-21T02:41:13.386Z,15.36
2017-06-21T02:42:13.683Z,15.27
2017-06-21T02:43:13.357Z,15.26
2017-06-21T02:44:13.660Z,15.3
2017-06-21T02:45:13.652Z,15.35
2017-06-21T02:46:13.639Z,15.35
2017-06-21T02:47:13.630Z,15.17
2017-06-21T02:48:13.616Z,15.2
2017-06-21T02:49:13.606Z,15.3
2017-06-21T02:50:13.594Z,15.26
2017-06-21T02:51:13.579Z,15.26
2017-06-21T02:52:13.572Z,15.26
2017-06-21T02:53:13.559Z,15.17
2017-06-21T02:54:13.236Z,15.2
2017-06-21T02:55:13.225Z,15.24
2017-06-21T02:56:13.212Z,15.13
2017-06-21T02:57:13.520Z,15.19
2017-06-21T02:58:13.500Z,15.23
2017-06-21T02:59:13.180Z,15.17
2017-06-21T03:00:13.168Z,15.11
2017-06-21T03:01:13.161Z,15.12
2017-06-21T03:02:13.458Z,15.17
2017-06-21T03:03:12.818Z,15.13
2017-06-21T03:04:13.119Z,15.15
2017-06-21T03:05:13.109Z,15.15
2017-06-21T03:06:13.099Z,15.06
2017-06-21T03:07:13.094Z,15.17
2017-06-21T03:08:13.392Z,15.09
2017-06-21T03:09:13.060Z,15.12
2017-06-21T03:10:12.738Z,15.05
2017-06-21T03:11:13.360Z,15.12
2017-06-21T03:12:13.347Z,15.09
2017-06-21T03:13:13.329Z,14.98
2017-06-21T03:14:13.003Z,14.99
2017-06-21T03:15:13.308Z,15.02
2017-06-21T03:16:12.986Z,14.95
2017-06-21T03:17:13.286Z,14.91
2017-06-21T03:18:12.961Z,14.94
2017-06-21T03:19:13.268Z,14.87
2017-06-21T03:20:12.938Z,14.86
2017-06-21T03:21:13.242Z,14.84
2017-06-21T03:22:12.917Z,14.84
2017-06-21T03:23:13.217Z,14.87
2017-06-21T03:24:12.574Z,14.86
2017-06-21T03:25:12.883Z,14.86
2017-06-21T03:26:12.873Z,14.81
2017-06-21T03:27:13.181Z,14.88
2017-06-21T03:28:12.842Z,14.78
2017-06-21T03:29:12.831Z,14.88
2017-06-21T03:30:13.138Z,14.88
2017-06-21T03:31:13.132Z,14.94
2017-06-21T03:32:13.000Z,14.83
2017-06-21T03:33:12.797Z,14.84
2017-06-21T03:34:12.460Z,14.8
2017-06-21T03:35:13.075Z,14.78
2017-06-21T03:36:12.752Z,14.72
2017-06-21T03:37:13.053Z,14.72
2017-06-21T03:38:12.736Z,14.75
2017-06-21T03:39:12.734Z,14.81
2017-06-21T03:40:12.714Z,14.78
2017-06-21T03:41:12.379Z,14.83
2017-06-21T03:42:12.369Z,14.86
2017-06-21T03:43:12.681Z,14.87
2017-06-21T03:44:12.657Z,14.84
2017-06-21T03:45:12.334Z,14.8
2017-06-21T03:46:12.632Z,14.74
2017-06-21T03:47:12.936Z,14.78
2017-06-21T03:48:12.299Z,14.74
2017-06-21T03:49:12.913Z,14.78
2017-06-21T03:50:12.904Z,14.81
2017-06-21T03:51:12.895Z,14.87
2017-06-21T03:52:12.561Z,14.81
2017-06-21T03:53:12.866Z,14.8
2017-06-21T03:54:12.539Z,14.91
2017-06-21T03:55:12.534Z,14.84
2017-06-21T03:56:12.521Z,14.86
2017-06-21T03:57:12.817Z,14.95
2017-06-21T03:58:12.804Z,14.91
2017-06-21T03:59:12.482Z,14.95
2017-06-21T04:00:12.798Z,14.88
2017-06-21T04:01:12.780Z,15.05
2017-06-21T04:02:12.450Z,15.03
2017-06-21T04:03:12.842Z,14.98
2017-06-21T04:04:12.741Z,15.03
2017-06-21T04:05:12.738Z,14.95
2017-06-21T04:06:12.405Z,15.01
2017-06-21T04:07:12.091Z,15.08
2017-06-21T04:08:12.716Z,15.12
2017-06-21T04:09:12.385Z,15.09
2017-06-21T04:10:12.706Z,15.15
2017-06-21T04:11:12.036Z,15.13
2017-06-21T04:12:12.072Z,15.13
2017-06-21T04:13:12.652Z,15.09
2017-06-21T04:14:12.316Z,15.15
2017-06-21T04:15:12.631Z,15.11
2017-06-21T04:16:12.624Z,15.15
2017-06-21T04:17:12.625Z,15.26
2017-06-21T04:18:12.592Z,15.3
2017-06-21T04:19:12.257Z,15.31
2017-06-21T04:20:12.257Z,15.24
2017-06-21T04:21:12.548Z,15.24
2017-06-21T04:22:12.220Z,15.3
2017-06-21T04:23:12.210Z,15.28
2017-06-21T04:24:12.201Z,15.23
2017-06-21T04:25:11.876Z,15.31
2017-06-21T04:26:12.175Z,15.3
2017-06-21T04:27:12.167Z,15.26
2017-06-21T04:28:11.837Z,15.33
2017-06-21T04:29:12.456Z,15.38
2017-06-21T04:30:12.130Z,15.39
2017-06-21T04:31:12.118Z,15.39
2017-06-21T04:32:12.110Z,15.46
2017-06-21T04:33:11.786Z,15.41
2017-06-21T04:34:12.089Z,15.33
2017-06-21T04:35:12.080Z,15.41
2017-06-21T04:36:12.380Z,15.39
2017-06-21T04:37:12.365Z,15.43
2017-06-21T04:38:12.043Z,15.45
2017-06-21T04:39:12.344Z,15.45
2017-06-21T04:40:12.335Z,15.48
2017-06-21T04:41:11.694Z,15.43
2017-06-21T04:42:11.995Z,15.48
2017-06-21T04:43:11.992Z,15.52
2017-06-21T04:44:11.661Z,15.54
2017-06-21T04:45:12.284Z,15.59
2017-06-21T04:46:12.282Z,15.57
2017-06-21T04:47:12.263Z,15.56
2017-06-21T04:48:12.260Z,15.67
2017-06-21T04:49:11.923Z,15.61
2017-06-21T04:50:11.910Z,15.64
2017-06-21T04:51:12.209Z,15.66
2017-06-21T04:52:11.881Z,15.67
2017-06-21T04:53:11.878Z,15.75
2017-06-21T04:54:12.176Z,15.72
2017-06-21T04:55:11.854Z,15.72
2017-06-21T04:56:12.154Z,15.76
2017-06-21T04:57:11.833Z,15.82
2017-06-21T04:58:12.131Z,15.79
2017-06-21T04:59:11.810Z,15.92
2017-06-21T05:00:12.114Z,15.84
2017-06-21T05:01:11.791Z,15.88
2017-06-21T05:02:12.093Z,15.96
2017-06-21T05:03:12.081Z,15.93
2017-06-21T05:04:11.761Z,15.88
2017-06-21T05:05:12.056Z,15.89
2017-06-21T05:06:11.734Z,15.96
2017-06-21T05:07:11.733Z,16
2017-06-21T05:08:11.400Z,15.99
2017-06-21T05:09:11.698Z,16.07
2017-06-21T05:10:12.001Z,16.07
2017-06-21T05:11:11.682Z,16.09
2017-06-21T05:12:11.983Z,16.15
2017-06-21T05:13:11.658Z,16.23
2017-06-21T05:14:11.958Z,16.18
2017-06-21T05:15:11.635Z,16.16
2017-06-21T05:16:11.318Z,16.3
2017-06-21T05:17:11.621Z,16.26
2017-06-21T05:18:11.605Z,16.26
2017-06-21T05:19:11.593Z,16.27
2017-06-21T05:20:11.903Z,16.26
2017-06-21T05:21:11.572Z,16.37
2017-06-21T05:22:11.560Z,16.4
2017-06-21T05:23:11.553Z,16.42
2017-06-21T05:24:11.854Z,16.53
2017-06-21T05:25:11.842Z,16.5
2017-06-21T05:26:11.832Z,16.6
2017-06-21T05:27:11.514Z,16.58
2017-06-21T05:28:11.502Z,16.63
2017-06-21T05:29:11.488Z,16.65
2017-06-21T05:30:11.817Z,16.73
2017-06-21T05:31:11.472Z,16.74
2017-06-21T05:32:12.181Z,16.8
2017-06-21T05:33:11.761Z,16.74
2017-06-21T05:34:11.754Z,16.77
2017-06-21T05:35:11.739Z,16.85
2017-06-21T05:36:11.419Z,16.86
2017-06-21T05:37:11.404Z,16.65
2017-06-21T05:38:11.711Z,16.85
2017-06-21T05:39:11.701Z,16.81
2017-06-21T05:40:11.693Z,16.81
2017-06-21T05:41:11.364Z,16.81
2017-06-21T05:42:11.669Z,16.75
2017-06-21T05:43:11.045Z,16.81
2017-06-21T05:44:11.654Z,16.88
2017-06-21T05:45:11.324Z,16.86
2017-06-21T05:46:11.317Z,16.9
2017-06-21T05:47:11.314Z,16.89
2017-06-21T05:48:11.612Z,17
2017-06-21T05:49:11.285Z,16.93
2017-06-21T05:50:11.584Z,16.9
2017-06-21T05:51:11.577Z,16.95
2017-06-21T05:52:11.570Z,17.03
2017-06-21T05:53:11.570Z,17.07
2017-06-21T05:54:11.567Z,17.08
2017-06-21T05:55:10.912Z,17.15
2017-06-21T05:56:11.217Z,17.08
2017-06-21T05:57:11.204Z,17.13
2017-06-21T05:58:11.193Z,17.23
2017-06-21T05:59:11.184Z,17.2
2017-06-21T06:00:11.182Z,17.26
2017-06-21T06:01:11.166Z,17.32
2017-06-21T06:02:11.470Z,17.35
2017-06-21T06:03:11.145Z,17.32
2017-06-21T06:04:11.138Z,17.29
2017-06-21T06:05:11.437Z,17.41
2017-06-21T06:06:11.429Z,17.4
2017-06-21T06:07:11.424Z,17.5
2017-06-21T06:08:11.408Z,17.5
2017-06-21T06:09:11.086Z,17.46
2017-06-21T06:10:11.078Z,17.5
2017-06-21T06:11:11.072Z,17.48
2017-06-21T06:12:11.059Z,17.53
2017-06-21T06:13:11.361Z,17.47
2017-06-21T06:14:11.361Z,17.48
2017-06-21T06:15:11.030Z,17.4
2017-06-21T06:16:11.027Z,17.47
2017-06-21T06:17:11.319Z,17.57
2017-06-21T06:18:11.312Z,17.78
2017-06-21T06:19:11.303Z,17.99
2017-06-21T06:20:10.980Z,18.19
2017-06-21T06:21:10.974Z,18.39
2017-06-21T06:22:11.275Z,18.58
2017-06-21T06:23:11.271Z,18.79
2017-06-21T06:24:10.945Z,18.83
2017-06-21T06:25:10.936Z,18.67
2017-06-21T06:26:11.241Z,18.76
2017-06-21T06:27:11.234Z,18.64
2017-06-21T06:28:10.911Z,18.47
2017-06-21T06:29:10.901Z,18.43
2017-06-21T06:30:11.213Z,18.36
2017-06-21T06:31:10.885Z,18.34
2017-06-21T06:32:11.194Z,18.28
2017-06-21T06:33:11.187Z,18.24
2017-06-21T06:34:11.169Z,18.21
2017-06-21T06:35:11.166Z,18.17
2017-06-21T06:36:11.155Z,18.17
2017-06-21T06:37:10.530Z,18.17
2017-06-21T06:38:10.825Z,18.15
2017-06-21T06:39:11.129Z,18.22
2017-06-21T06:40:10.496Z,18.22
2017-06-21T06:41:10.799Z,18.18
2017-06-21T06:42:10.790Z,18.25
2017-06-21T06:43:11.092Z,18.18
2017-06-21T06:44:11.089Z,18.12
2017-06-21T06:45:11.076Z,18.27
2017-06-21T06:46:11.065Z,18.27
2017-06-21T06:47:11.054Z,18.44
2017-06-21T06:48:11.048Z,18.95
2017-06-21T06:49:10.726Z,19.78
2017-06-21T06:50:10.721Z,20.86
2017-06-21T06:51:10.722Z,21.85
2017-06-21T06:52:10.703Z,22.59
2017-06-21T06:53:10.697Z,23.04
2017-06-21T06:54:10.379Z,23.61
2017-06-21T06:55:10.999Z,24
2017-06-21T06:56:10.674Z,24.47
2017-06-21T06:57:10.358Z,25
2017-06-21T06:58:10.659Z,25.34
2017-06-21T06:59:10.967Z,25.72
2017-06-21T07:00:10.964Z,26.12
2017-06-21T07:01:10.640Z,26.43
2017-06-21T07:02:10.641Z,26.72
2017-06-21T07:03:10.316Z,26.84
2017-06-21T07:04:10.618Z,27.23
2017-06-21T07:05:10.610Z,27.36
2017-06-21T07:06:10.929Z,27.32
2017-06-21T07:07:10.598Z,27.17
2017-06-21T07:08:10.907Z,26.68
2017-06-21T07:09:10.284Z,26.36
2017-06-21T07:10:10.576Z,25.69
2017-06-21T07:11:10.567Z,25.32
2017-06-21T07:12:10.873Z,25.19
2017-06-21T07:13:10.562Z,25.35
2017-06-21T07:14:10.864Z,25.61
2017-06-21T07:15:10.545Z,25.75
2017-06-21T07:16:10.846Z,25.77
2017-06-21T07:17:10.835Z,25.93
2017-06-21T07:18:10.835Z,25.99
2017-06-21T07:19:10.834Z,26.04
2017-06-21T07:20:10.531Z,26.39
2017-06-21T07:21:10.836Z,26.52
2017-06-21T07:22:10.812Z,26.89
2017-06-21T07:23:10.799Z,27.28
2017-06-21T07:24:10.797Z,27.47
2017-06-21T07:25:10.790Z,27.67
2017-06-21T07:26:10.786Z,27.77
2017-06-21T07:27:10.787Z,27.86
2017-06-21T07:28:10.777Z,28.09
2017-06-21T07:29:10.456Z,28.28
2017-06-21T07:30:10.450Z,28.33
2017-06-21T07:31:10.764Z,28.26
2017-06-21T07:32:11.058Z,28.41
2017-06-21T07:33:10.761Z,28.31
2017-06-21T07:34:10.760Z,28.35
2017-06-21T07:35:10.435Z,28.43
2017-06-21T07:36:10.748Z,28.44
2017-06-21T07:37:10.436Z,28.56
2017-06-21T07:38:10.745Z,28.69
2017-06-21T07:39:10.113Z,28.91
2017-06-21T07:40:10.112Z,29.13
2017-06-21T07:41:10.421Z,29.38
2017-06-21T07:42:10.732Z,29.6
2017-06-21T07:43:10.770Z,29.52
2017-06-21T07:44:10.726Z,29.43
2017-06-21T07:45:10.414Z,29.4
2017-06-21T07:46:10.725Z,29.43
2017-06-21T07:47:10.410Z,29.5
2017-06-21T07:48:10.723Z,29.55
2017-06-21T07:49:10.722Z,29.56
2017-06-21T07:50:10.718Z,29.52
2017-06-21T07:51:10.718Z,29.55
2017-06-21T07:52:10.090Z,29.77
2017-06-21T07:53:10.091Z,29.84
2017-06-21T07:54:10.401Z,30.02
2017-06-21T07:55:10.716Z,30.15
2017-06-21T07:56:10.403Z,30.24
2017-06-21T07:57:10.402Z,30.49
2017-06-21T07:58:10.399Z,30.59
2017-06-21T07:59:10.399Z,30.78
2017-06-21T08:00:10.712Z,30.84
2017-06-21T08:01:10.713Z,30.72
2017-06-21T08:02:10.402Z,30.74
2017-06-21T08:03:10.710Z,30.74
2017-06-21T08:04:10.395Z,30.94
2017-06-21T08:05:10.088Z,31.02
2017-06-21T08:06:10.709Z,31.12
2017-06-21T08:07:10.710Z,31.18
2017-06-21T08:08:10.401Z,31.18
2017-06-21T08:09:10.708Z,31.2
2017-06-21T08:10:10.398Z,31.12
2017-06-21T08:11:10.713Z,31.21
2017-06-21T08:12:10.716Z,31.3
2017-06-21T08:13:10.714Z,31.5
2017-06-21T08:14:10.403Z,31.7
2017-06-21T08:15:10.723Z,31.82
2017-06-21T08:16:10.407Z,32.02
2017-06-21T08:17:10.405Z,32
2017-06-21T08:18:10.405Z,31.91
2017-06-21T08:19:10.723Z,31.73
2017-06-21T08:20:10.407Z,31.7
2017-06-21T08:21:10.421Z,31.6
2017-06-21T08:22:10.412Z,31.57
2017-06-21T08:23:10.419Z,31.76
2017-06-21T08:24:10.417Z,31.96
2017-06-21T08:25:10.729Z,31.95
2017-06-21T08:26:10.105Z,31.99
2017-06-21T08:27:10.733Z,32.2
2017-06-21T08:28:10.422Z,32.14
2017-06-21T08:29:10.739Z,32.24
2017-06-21T08:30:10.743Z,32.49
2017-06-21T08:31:10.740Z,32.74
2017-06-21T08:32:10.744Z,32.79
2017-06-21T08:33:10.435Z,32.85
2017-06-21T08:34:10.122Z,32.69
2017-06-21T08:35:10.747Z,32.57
2017-06-21T08:36:10.437Z,32.25
2017-06-21T08:37:10.440Z,32
2017-06-21T08:38:10.759Z,31.77
2017-06-21T08:39:10.760Z,31.84
2017-06-21T08:40:10.756Z,31.84
2017-06-21T08:41:10.136Z,31.8
2017-06-21T08:42:10.768Z,31.8
2017-06-21T08:43:10.457Z,31.82
2017-06-21T08:44:10.772Z,31.7
2017-06-21T08:45:10.463Z,31.75
2017-06-21T08:46:10.461Z,31.92
2017-06-21T08:47:10.777Z,31.91
2017-06-21T08:48:10.155Z,32.02
2017-06-21T08:49:10.778Z,32.15
2017-06-21T08:50:10.785Z,32.29
2017-06-21T08:51:10.477Z,32.17
2017-06-21T08:52:10.832Z,32.35
2017-06-21T08:53:10.478Z,32.35
2017-06-21T08:54:10.480Z,31.93
2017-06-21T08:55:10.486Z,31.61
2017-06-21T08:56:10.801Z,31.11
2017-06-21T08:57:10.800Z,30.38
2017-06-21T08:58:10.178Z,29.74
2017-06-21T08:59:10.176Z,29.4
2017-06-21T09:00:10.808Z,29.16
2017-06-21T09:01:10.804Z,28.96
2017-06-21T09:02:10.804Z,28.69
2017-06-21T09:03:10.807Z,28.44
2017-06-21T09:04:10.500Z,28.4
2017-06-21T09:05:10.501Z,28.13
2017-06-21T09:06:10.811Z,28.03
2017-06-21T09:07:10.183Z,27.86
2017-06-21T09:08:10.807Z,27.8
2017-06-21T09:09:10.810Z,27.79
2017-06-21T09:10:10.503Z,27.64
2017-06-21T09:11:10.496Z,27.53
2017-06-21T09:12:10.808Z,27.35
2017-06-21T09:13:10.502Z,27.28
2017-06-21T09:14:10.492Z,27.16
2017-06-21T09:15:10.524Z,27.1
2017-06-21T09:16:10.494Z,27.47
2017-06-21T09:17:10.494Z,27.88
2017-06-21T09:18:10.809Z,28.38
2017-06-21T09:19:10.177Z,28.56
2017-06-21T09:20:10.494Z,29
2017-06-21T09:21:10.497Z,29.18
2017-06-21T09:22:10.497Z,29.35
2017-06-21T09:23:10.807Z,29.68
2017-06-21T09:24:10.500Z,29.87
2017-06-21T09:25:10.812Z,30
2017-06-21T09:26:10.496Z,30.3
2017-06-21T09:27:10.500Z,30.54
2017-06-21T09:28:10.507Z,30.76
2017-06-21T09:29:10.503Z,31.02
2017-06-21T09:30:10.822Z,31.28
2017-06-21T09:31:10.817Z,31.49
2017-06-21T09:32:10.195Z,31.3
2017-06-21T09:33:10.553Z,31.35
2017-06-21T09:34:10.823Z,31.6
2017-06-21T09:35:10.205Z,31.92
2017-06-21T09:36:10.525Z,32.2
2017-06-21T09:37:10.524Z,32.42
2017-06-21T09:38:10.524Z,32.35
2017-06-21T09:39:10.849Z,32.13
2017-06-21T09:40:10.533Z,32.07
2017-06-21T09:41:10.532Z,32.1
2017-06-21T09:42:10.536Z,32.22
2017-06-21T09:43:10.535Z,32.24
2017-06-21T09:44:10.860Z,32.14
2017-06-21T09:45:10.546Z,32.13
2017-06-21T09:46:10.861Z,31.93
2017-06-21T09:47:10.864Z,31.91
2017-06-21T09:48:10.551Z,32.07
2017-06-21T09:49:10.554Z,32.03
2017-06-21T09:50:10.875Z,32.22
2017-06-21T09:51:10.877Z,32.36
2017-06-21T09:52:10.880Z,32.05
2017-06-21T09:53:10.569Z,32
2017-06-21T09:54:10.886Z,31.72
2017-06-21T09:55:10.780Z,31.54
2017-06-21T09:56:10.585Z,31.5
2017-06-21T09:57:10.588Z,31.65
2017-06-21T09:58:10.588Z,31.73
2017-06-21T09:59:10.905Z,31.72
2017-06-21T10:00:10.909Z,31.57
2017-06-21T10:01:10.916Z,31.46
2017-06-21T10:02:10.913Z,31.53
2017-06-21T10:03:10.605Z,31.49
2017-06-21T10:04:10.920Z,31.61
2017-06-21T10:05:10.921Z,31.53
2017-06-21T10:06:10.612Z,31.3
2017-06-21T10:07:10.935Z,31.11
2017-06-21T10:08:10.623Z,31.02
2017-06-21T10:09:10.309Z,30.9
2017-06-21T10:10:10.940Z,30.74
2017-06-21T10:11:10.320Z,30.72
2017-06-21T10:12:10.634Z,30.72
2017-06-21T10:13:10.949Z,30.18
2017-06-21T10:14:10.640Z,30.05
2017-06-21T10:15:10.956Z,29.9
2017-06-21T10:16:10.957Z,29.9
2017-06-21T10:17:10.641Z,29.93
2017-06-21T10:18:10.959Z,29.94
2017-06-21T10:19:10.966Z,29.86
2017-06-21T10:20:10.344Z,29.89
2017-06-21T10:21:10.969Z,29.96
2017-06-21T10:22:10.658Z,29.99
2017-06-21T10:23:10.666Z,30.29
2017-06-21T10:24:10.351Z,30.47
2017-06-21T10:25:10.662Z,30.65
2017-06-21T10:26:10.975Z,30.87
2017-06-21T10:27:10.987Z,31.11
2017-06-21T10:28:10.979Z,31.11
2017-06-21T10:29:10.356Z,31.11
2017-06-21T10:30:10.675Z,31.12
2017-06-21T10:31:10.365Z,31.08
2017-06-21T10:32:11.006Z,30.76
2017-06-21T10:33:10.991Z,30.67
2017-06-21T10:34:10.685Z,30.64
2017-06-21T10:35:10.373Z,30.45
2017-06-21T10:36:11.005Z,30.29
2017-06-21T10:37:10.689Z,30.14
2017-06-21T10:38:11.001Z,30.11
2017-06-21T10:39:10.691Z,29.99
2017-06-21T10:40:10.697Z,29.81
2017-06-21T10:41:10.695Z,29.82
2017-06-21T10:42:10.384Z,29.56
2017-06-21T10:43:10.383Z,29.55
2017-06-21T10:44:11.007Z,29.43
2017-06-21T10:45:10.703Z,29.45
2017-06-21T10:46:11.011Z,29.29
2017-06-21T10:47:11.018Z,29.59
2017-06-21T10:48:10.705Z,30.09
2017-06-21T10:49:10.389Z,30.61
2017-06-21T10:50:11.026Z,31.13
2017-06-21T10:51:11.017Z,31.57
2017-06-21T10:52:11.021Z,31.73
2017-06-21T10:53:10.714Z,31.61
2017-06-21T10:54:10.707Z,31.96
2017-06-21T10:55:10.714Z,32.36
2017-06-21T10:56:10.710Z,32.8
2017-06-21T10:57:11.027Z,33.06
2017-06-21T10:58:10.713Z,33.36
2017-06-21T10:59:11.081Z,33.43
2017-06-21T11:00:10.406Z,33.68
2017-06-21T11:01:10.727Z,33.76
2017-06-21T11:02:10.735Z,33.79
2017-06-21T11:03:10.731Z,33.71
2017-06-21T11:04:11.047Z,33.61
2017-06-21T11:05:11.049Z,33.45
2017-06-21T11:06:11.058Z,33.34
2017-06-21T11:07:10.748Z,33.29
2017-06-21T11:08:10.439Z,33.43
2017-06-21T11:09:11.071Z,33.33
2017-06-21T11:10:10.755Z,33.49
2017-06-21T11:11:11.074Z,33.6
2017-06-21T11:12:11.081Z,33.6
2017-06-21T11:13:11.075Z,33.78
2017-06-21T11:14:11.082Z,33.95
2017-06-21T11:15:11.084Z,34.17
2017-06-21T11:16:10.782Z,34.17
2017-06-21T11:17:11.092Z,34.22
2017-06-21T11:18:10.788Z,34.31
2017-06-21T11:19:10.790Z,34.23
2017-06-21T11:20:11.109Z,34.22
2017-06-21T11:21:11.108Z,34.32
2017-06-21T11:22:11.113Z,34.57
2017-06-21T11:23:10.805Z,34.76
2017-06-21T11:24:11.126Z,34.94
2017-06-21T11:25:11.129Z,35.02
2017-06-21T11:26:10.829Z,35.1
2017-06-21T11:27:10.825Z,35.03
2017-06-21T11:28:10.827Z,35.15
2017-06-21T11:29:10.536Z,35.08
2017-06-21T11:30:10.834Z,35.13
2017-06-21T11:31:10.842Z,35.18
2017-06-21T11:32:10.536Z,35.08
2017-06-21T11:33:11.162Z,35.07
2017-06-21T11:34:11.171Z,35.14
2017-06-21T11:35:11.177Z,35.07
2017-06-21T11:36:10.553Z,34.99
2017-06-21T11:37:10.872Z,34.77
2017-06-21T11:38:10.869Z,34.63
2017-06-21T11:39:10.888Z,34.8
2017-06-21T11:40:11.196Z,34.88
2017-06-21T11:41:11.205Z,34.84
2017-06-21T11:42:10.894Z,34.8
2017-06-21T11:43:11.216Z,34.89
2017-06-21T11:44:10.904Z,35.08
2017-06-21T11:45:10.907Z,35.21
2017-06-21T11:46:11.229Z,35.35
2017-06-21T11:47:10.917Z,35.4
2017-06-21T11:48:11.237Z,35.18
2017-06-21T11:49:10.931Z,35.26
2017-06-21T11:50:11.250Z,35.33
2017-06-21T11:51:10.938Z,35.37
2017-06-21T11:52:10.678Z,35.3
2017-06-21T11:53:11.262Z,35.39
2017-06-21T11:54:10.974Z,35.14
2017-06-21T11:55:10.968Z,34.57
2017-06-21T11:56:10.960Z,34.42
2017-06-21T11:57:10.968Z,34.58
2017-06-21T11:58:10.973Z,34.77
2017-06-21T11:59:10.982Z,34.64
2017-06-21T12:00:11.298Z,34.91
2017-06-21T12:01:11.299Z,35.13
2017-06-21T12:02:10.681Z,35.06
2017-06-21T12:03:10.995Z,34.81
2017-06-21T12:04:10.690Z,34.79
2017-06-21T12:05:11.316Z,34.99
2017-06-21T12:06:11.012Z,35.25
2017-06-21T12:07:10.698Z,35.36
2017-06-21T12:08:11.333Z,35.48
2017-06-21T12:09:10.716Z,35.76
2017-06-21T12:10:11.027Z,35.79
2017-06-21T12:11:10.726Z,35.89
2017-06-21T12:12:10.725Z,35.92
2017-06-21T12:13:11.355Z,35.88
2017-06-21T12:14:10.731Z,35.95
2017-06-21T12:15:11.063Z,36.23
2017-06-21T12:16:11.370Z,36.27
2017-06-21T12:17:11.063Z,36.41
2017-06-21T12:18:11.382Z,36.46
2017-06-21T12:20:17.945Z,36.64
2017-06-21T12:20:28.698Z,36.65
2017-06-21T12:21:28.712Z,36.72
2017-06-21T12:22:28.399Z,36.77
2017-06-21T12:23:28.717Z,36.76
2017-06-21T12:24:28.714Z,36.7
2017-06-21T12:25:28.099Z,36.77
2017-06-21T12:26:28.422Z,36.8
2017-06-21T12:27:28.418Z,36.73
2017-06-21T12:28:28.107Z,36.57
2017-06-21T12:29:28.746Z,36.6
2017-06-21T12:30:28.748Z,36.54
2017-06-21T12:31:28.438Z,36.67
2017-06-21T12:32:28.130Z,36.48
2017-06-21T12:33:28.447Z,36.38
2017-06-21T12:34:28.449Z,36.39
2017-06-21T12:35:28.772Z,36.57
2017-06-21T12:36:28.469Z,36.54
2017-06-21T12:37:28.785Z,36.67
2017-06-21T12:38:28.786Z,36.91
2017-06-21T12:39:28.166Z,36.92
2017-06-21T12:40:28.800Z,36.94
2017-06-21T12:41:28.505Z,36.79
2017-06-21T12:42:28.807Z,36.67
2017-06-21T12:43:28.537Z,36.7
2017-06-21T12:44:28.832Z,36.54
2017-06-21T12:45:28.517Z,36.54
2017-06-21T12:46:28.832Z,36.42
2017-06-21T12:47:28.219Z,36.42
2017-06-21T12:48:28.218Z,36.43
2017-06-21T12:49:28.543Z,36.49
2017-06-21T12:50:28.863Z,36.56
2017-06-21T12:51:28.547Z,36.45
2017-06-21T12:52:28.879Z,35.89
2017-06-21T12:53:28.241Z,35.74
2017-06-21T12:54:28.872Z,35.92
2017-06-21T12:55:28.876Z,35.91
2017-06-21T12:56:28.888Z,35.77